Time;durP1;ratioP1;P1;durP2;ratioP2;P2;SDS_P1;SDS_P2;PMS_P1;PMS_P2;Temp;Humidity;BMP_temperature;BMP_pressure;BME280_temperature;BME280_humidity;BME280_pressure;Samples;Min_cycle;Max_cycle;Signal;HPM_P1;HPM_P2
2021/09/11 00:01:44;;;;;;;6.72;4.95;;;19.40;99.90;;;;;;5035577;28;20139;-83
2021/09/11 00:04:10;;;;;;;6.85;5.10;;;19.40;99.90;;;;;;5037188;28;20026;-84
2021/09/11 00:06:35;;;;;;;7.38;4.97;;;19.30;99.90;;;;;;5076152;28;20029;-84
2021/09/11 00:09:01;;;;;;;7.80;4.68;;;19.30;99.90;;;;;;5076461;28;20035;-84
2021/09/11 00:11:26;;;;;;;7.35;4.72;;;19.30;99.90;;;;;;5042378;28;20038;-83
2021/09/11 00:13:52;;;;;;;6.60;4.93;;;19.30;99.90;;;;;;5052336;28;20035;-84
2021/09/11 00:16:18;;;;;;;8.45;5.00;;;19.20;99.90;;;;;;5036984;28;20045;-84
2021/09/11 00:18:43;;;;;;;7.32;4.70;;;19.20;99.90;;;;;;5035819;28;20021;-84
2021/09/11 00:21:09;;;;;;;7.20;4.80;;;19.10;99.90;;;;;;5036637;28;20045;-84
2021/09/11 00:23:34;;;;;;;7.75;5.05;;;19.10;99.90;;;;;;5036318;28;20028;-84
2021/09/11 00:26:00;;;;;;;7.32;4.88;;;19.10;99.90;;;;;;5055455;28;20029;-84
2021/09/11 00:28:27;;;;;;;7.57;5.03;;;19.10;99.90;;;;;;5042268;28;20156;-84
2021/09/11 00:30:52;;;;;;;7.13;4.50;;;19.10;99.90;;;;;;5051491;28;20469;-84
2021/09/11 00:33:18;;;;;;;7.05;4.53;;;19.10;99.90;;;;;;5053673;28;20026;-84
2021/09/11 00:35:43;;;;;;;7.20;4.68;;;19.20;99.90;;;;;;5043970;28;20029;-84
2021/09/11 00:38:09;;;;;;;7.47;4.88;;;19.00;99.90;;;;;;5054080;28;20096;-83
2021/09/11 00:40:35;;;;;;;6.05;4.63;;;19.00;99.90;;;;;;5060253;28;20113;-83
2021/09/11 00:43:00;;;;;;;6.10;4.55;;;19.00;99.90;;;;;;5060743;28;20031;-83
2021/09/11 00:45:26;;;;;;;7.50;4.88;;;18.90;99.90;;;;;;5058296;28;20086;-84
2021/09/11 00:47:52;;;;;;;7.38;4.82;;;18.90;99.90;;;;;;5047582;28;20033;-82
2021/09/11 00:50:19;;;;;;;7.07;4.90;;;18.80;99.90;;;;;;5038221;28;20124;-83
2021/09/11 00:52:46;;;;;;;8.02;5.13;;;18.90;99.90;;;;;;5039699;28;20072;-83
2021/09/11 00:55:13;;;;;;;6.75;4.97;;;18.90;99.90;;;;;;5039547;28;20037;-83
2021/09/11 00:57:44;;;;;;;11.43;4.88;;;18.80;99.90;;;;;;5038724;28;20045;-83
2021/09/11 01:00:10;;;;;;;8.40;4.78;;;18.80;99.90;;;;;;5054586;28;20433;-84
2021/09/11 01:02:36;;;;;;;7.32;5.28;;;18.80;99.90;;;;;;5039824;28;20374;-83
2021/09/11 01:05:08;;;;;;;7.18;5.13;;;18.70;99.90;;;;;;5056182;28;20021;-83
2021/09/11 01:07:42;;;;;;;8.20;5.22;;;18.70;99.90;;;;;;5041969;28;20705;-83
2021/09/11 01:10:08;;;;;;;8.60;4.90;;;18.60;99.90;;;;;;5041397;28;20041;-83
2021/09/11 01:12:34;;;;;;;8.55;4.90;;;18.50;99.90;;;;;;5038030;28;20025;-83
2021/09/11 01:15:04;;;;;;;8.27;4.70;;;18.50;99.90;;;;;;5037520;28;20094;-84
2021/09/11 01:17:30;;;;;;;7.88;4.60;;;18.40;99.90;;;;;;5039129;28;20025;-84
2021/09/11 01:19:55;;;;;;;7.53;5.07;;;18.50;99.90;;;;;;5036695;28;20609;-84
2021/09/11 01:22:21;;;;;;;7.68;5.10;;;18.50;99.90;;;;;;5053731;28;20454;-84
2021/09/11 01:25:02;;;;;;;6.82;4.80;;;18.50;99.90;;;;;;5045800;28;20040;-84
2021/09/11 01:27:29;;;;;;;7.07;5.65;;;18.60;99.90;;;;;;5057586;28;20088;-84
2021/09/11 01:30:04;;;;;;;6.35;5.03;;;18.50;99.90;;;;;;5055033;28;20039;-84
2021/09/11 01:32:31;;;;;;;8.85;5.50;;;18.40;99.90;;;;;;5056656;28;20032;-84
2021/09/11 01:34:57;;;;;;;7.30;5.10;;;18.40;99.90;;;;;;5051934;28;20065;-84
2021/09/11 01:37:23;;;;;;;9.00;4.80;;;18.40;99.90;;;;;;5037042;28;20025;-84
2021/09/11 01:39:49;;;;;;;8.25;5.07;;;18.40;99.90;;;;;;5052342;28;20028;-85
2021/09/11 01:42:27;;;;;;;8.32;5.88;;;18.50;99.90;;;;;;5037058;28;20017;-83
2021/09/11 01:44:54;;;;;;;6.78;4.90;;;18.50;99.90;;;;;;5037280;28;20057;-84
2021/09/11 01:47:19;;;;;;;7.43;4.70;;;18.50;99.90;;;;;;5038196;28;20026;-84
2021/09/11 01:49:45;;;;;;;7.50;4.97;;;18.50;99.90;;;;;;5037267;28;20037;-84
2021/09/11 01:52:11;;;;;;;6.55;4.68;;;18.50;99.90;;;;;;5036677;28;20494;-84
2021/09/11 01:54:38;;;;;;;7.22;4.97;;;18.60;99.90;;;;;;5038071;28;20064;-84
2021/09/11 01:57:06;;;;;;;6.93;4.80;;;18.60;99.90;;;;;;5036625;28;20042;-84
2021/09/11 01:59:32;;;;;;;8.30;5.15;;;18.50;99.90;;;;;;5037032;28;20029;-83
2021/09/11 02:01:57;;;;;;;7.20;4.88;;;18.50;99.90;;;;;;5034980;28;20371;-83
2021/09/11 02:04:23;;;;;;;7.68;4.85;;;18.50;99.90;;;;;;5048323;28;20032;-84
2021/09/11 02:06:50;;;;;;;7.93;5.55;;;18.40;99.90;;;;;;5054880;28;20108;-84
2021/09/11 02:09:15;;;;;;;7.72;5.70;;;18.50;99.90;;;;;;5053979;28;20537;-83
2021/09/11 02:11:41;;;;;;;9.05;5.60;;;18.40;99.90;;;;;;5037199;28;20053;-84
2021/09/11 02:14:06;;;;;;;8.65;5.57;;;18.30;99.90;;;;;;5035850;28;20029;-83
2021/09/11 02:16:32;;;;;;;9.38;5.70;;;18.40;99.90;;;;;;5035299;28;20076;-83
2021/09/11 02:18:57;;;;;;;7.00;5.28;;;18.40;99.90;;;;;;5034726;28;20029;-84
2021/09/11 02:21:23;;;;;;;8.18;5.40;;;18.50;99.90;;;;;;5034124;28;20494;-84
2021/09/11 02:23:49;;;;;;;9.15;5.22;;;18.50;99.90;;;;;;5036253;28;20053;-84
2021/09/11 02:26:15;;;;;;;7.35;4.97;;;18.40;99.90;;;;;;5053400;28;20024;-82
2021/09/11 02:28:40;;;;;;;7.28;5.00;;;18.40;99.90;;;;;;5050725;28;20398;-85
2021/09/11 02:31:06;;;;;;;6.93;4.90;;;18.50;99.90;;;;;;5040453;28;20025;-85
2021/09/11 02:33:32;;;;;;;9.93;5.00;;;18.50;99.90;;;;;;5050280;28;20081;-84
2021/09/11 02:35:57;;;;;;;7.65;4.85;;;18.50;99.90;;;;;;5056433;28;20104;-85
2021/09/11 02:38:23;;;;;;;7.45;5.05;;;18.40;99.90;;;;;;5037964;28;20094;-85
2021/09/11 02:40:49;;;;;;;7.28;5.03;;;18.60;99.90;;;;;;5037731;28;20021;-84
2021/09/11 02:43:14;;;;;;;6.63;4.93;;;18.50;99.90;;;;;;5036630;28;20120;-84
2021/09/11 02:45:40;;;;;;;6.82;4.88;;;18.40;99.90;;;;;;5046865;28;20036;-85
2021/09/11 02:48:05;;;;;;;7.30;4.82;;;18.50;99.90;;;;;;5053802;28;20037;-85
2021/09/11 02:50:31;;;;;;;7.03;5.10;;;18.50;99.90;;;;;;5053164;28;20036;-84
2021/09/11 02:52:56;;;;;;;8.52;5.00;;;18.50;99.90;;;;;;5046458;28;20086;-84
2021/09/11 02:55:22;;;;;;;7.57;4.70;;;18.50;99.90;;;;;;5068411;28;20039;-85
2021/09/11 02:57:48;;;;;;;6.35;4.78;;;18.40;99.90;;;;;;5049594;23;20684;-88
2021/09/11 03:00:13;;;;;;;7.05;4.50;;;18.40;99.90;;;;;;4989005;28;20022;-87
2021/09/11 03:02:39;;;;;;;6.45;4.82;;;18.40;99.90;;;;;;5004637;28;20034;-89
2021/09/11 03:05:05;;;;;;;8.25;4.63;;;18.40;99.90;;;;;;5004575;28;20561;-88
2021/09/11 03:07:31;;;;;;;7.15;4.50;;;18.40;99.90;;;;;;5004990;28;20031;-88
2021/09/11 03:09:56;;;;;;;6.25;4.57;;;18.60;99.90;;;;;;4995806;28;20121;-88
2021/09/11 03:12:22;;;;;;;6.47;4.53;;;18.40;99.90;;;;;;5007754;28;20037;-88
2021/09/11 03:14:47;;;;;;;7.15;4.63;;;18.50;99.90;;;;;;5008293;28;20419;-88
2021/09/11 03:17:13;;;;;;;7.82;4.63;;;18.40;99.90;;;;;;5009505;28;20026;-88
2021/09/11 03:19:38;;;;;;;6.18;4.40;;;18.50;99.90;;;;;;5004779;28;20031;-88
2021/09/11 03:22:04;;;;;;;6.65;4.40;;;18.50;99.90;;;;;;4988848;28;20030;-88
2021/09/11 03:24:30;;;;;;;7.75;4.95;;;18.50;99.90;;;;;;5029346;28;20049;-89
2021/09/11 03:26:56;;;;;;;7.82;4.53;;;18.50;99.90;;;;;;5083602;28;20082;-88
2021/09/11 03:29:21;;;;;;;6.20;4.38;;;18.50;99.90;;;;;;5007237;28;20125;-88
2021/09/11 03:31:47;;;;;;;9.07;4.72;;;18.50;99.90;;;;;;5009196;28;20067;-88
2021/09/11 03:34:13;;;;;;;5.30;3.80;;;18.50;99.90;;;;;;5009331;28;20346;-88
2021/09/11 03:36:38;;;;;;;6.38;4.30;;;18.50;99.90;;;;;;5007701;28;20474;-89
2021/09/11 03:39:04;;;;;;;8.02;4.60;;;18.50;99.90;;;;;;4995474;28;20033;-89
2021/09/11 03:41:30;;;;;;;7.10;4.82;;;18.50;99.90;;;;;;5007821;28;20065;-88
2021/09/11 03:43:55;;;;;;;5.72;4.05;;;18.50;99.90;;;;;;5007611;28;20028;-88
2021/09/11 03:46:21;;;;;;;6.10;4.10;;;18.50;99.90;;;;;;5007818;28;20087;-88
2021/09/11 03:48:46;;;;;;;6.72;4.55;;;18.50;99.90;;;;;;4993641;28;20027;-88
2021/09/11 03:51:12;;;;;;;5.25;3.80;;;18.50;99.90;;;;;;4990119;28;20037;-88
2021/09/11 03:53:37;;;;;;;7.15;4.20;;;18.40;99.90;;;;;;4988415;28;20019;-88
2021/09/11 03:56:03;;;;;;;6.10;4.22;;;18.50;99.90;;;;;;4988466;28;20026;-88
2021/09/11 03:58:29;;;;;;;5.18;3.72;;;18.50;99.90;;;;;;5001416;28;20034;-88
2021/09/11 04:00:54;;;;;;;7.47;4.28;;;18.50;99.90;;;;;;4988841;28;20497;-89
2021/09/11 04:03:21;;;;;;;4.90;3.58;;;18.50;99.90;;;;;;4989769;28;20652;-88
2021/09/11 04:05:47;;;;;;;7.72;3.85;;;18.50;99.90;;;;;;4989238;28;20030;-88
2021/09/11 04:08:12;;;;;;;5.65;3.10;;;18.50;99.90;;;;;;4991012;28;20089;-88
2021/09/11 04:10:38;;;;;;;6.03;4.00;;;18.50;99.90;;;;;;4991755;28;20026;-88
2021/09/11 04:13:03;;;;;;;5.25;3.65;;;18.40;99.90;;;;;;4992769;28;20135;-87
2021/09/11 04:15:29;;;;;;;5.22;3.65;;;18.50;99.90;;;;;;4991020;28;20026;-87
2021/09/11 04:17:55;;;;;;;6.47;3.35;;;18.40;99.90;;;;;;4991978;28;20850;-87
2021/09/11 04:20:21;;;;;;;5.82;3.20;;;18.30;99.90;;;;;;4992307;28;20026;-87
2021/09/11 04:22:46;;;;;;;4.75;3.38;;;18.40;99.90;;;;;;4991087;28;20099;-88
2021/09/11 04:25:12;;;;;;;5.63;3.75;;;18.40;99.90;;;;;;5067819;28;20091;-87
2021/09/11 04:27:38;;;;;;;5.60;3.88;;;18.40;99.90;;;;;;5113939;28;20030;-88
2021/09/11 04:30:05;;;;;;;6.07;3.63;;;18.40;99.90;;;;;;5112646;28;20446;-88
2021/09/11 04:32:31;;;;;;;7.15;3.75;;;18.50;99.90;;;;;;4993007;28;20038;-86
2021/09/11 04:34:56;;;;;;;6.10;4.03;;;18.40;99.90;;;;;;5008539;28;20087;-86
2021/09/11 04:37:22;;;;;;;4.97;3.35;;;18.40;99.90;;;;;;5010120;28;20397;-86
2021/09/11 04:39:47;;;;;;;6.00;3.90;;;18.40;99.90;;;;;;5009426;28;20033;-86
2021/09/11 04:42:13;;;;;;;7.43;3.70;;;18.30;99.90;;;;;;5005886;28;20171;-87
2021/09/11 04:44:38;;;;;;;5.80;3.75;;;18.20;99.90;;;;;;5002721;28;20052;-86
2021/09/11 04:47:04;;;;;;;5.15;3.63;;;18.10;99.90;;;;;;4991139;28;20030;-87
2021/09/11 04:49:30;;;;;;;5.63;3.40;;;18.00;99.90;;;;;;5000165;28;20056;-87
2021/09/11 04:51:56;;;;;;;5.00;3.50;;;17.90;99.90;;;;;;5008941;28;20033;-87
2021/09/11 04:54:21;;;;;;;5.55;3.55;;;17.90;99.90;;;;;;5014715;28;20026;-87
2021/09/11 04:56:47;;;;;;;5.43;3.75;;;17.90;99.90;;;;;;4999755;28;20505;-87
2021/09/11 04:59:12;;;;;;;5.90;3.35;;;17.90;99.90;;;;;;5008061;28;20049;-86
2021/09/11 05:01:38;;;;;;;5.60;3.25;;;17.90;99.90;;;;;;5010015;28;20090;-87
2021/09/11 05:04:04;;;;;;;6.88;3.70;;;17.90;99.90;;;;;;5009416;28;20478;-87
2021/09/11 05:06:30;;;;;;;4.55;3.20;;;17.80;99.90;;;;;;5006243;28;20030;-87
2021/09/11 05:08:56;;;;;;;4.80;3.22;;;17.70;99.90;;;;;;5001518;28;20053;-88
2021/09/11 05:11:21;;;;;;;6.50;3.10;;;17.70;99.90;;;;;;5008974;28;20053;-87
2021/09/11 05:13:47;;;;;;;4.65;3.10;;;17.70;99.90;;;;;;5010326;28;20014;-87
2021/09/11 05:16:12;;;;;;;6.25;3.28;;;17.70;99.90;;;;;;5005026;28;20513;-87
2021/09/11 05:18:38;;;;;;;5.78;3.20;;;17.60;99.90;;;;;;4993825;28;20398;-87
2021/09/11 05:21:07;;;;;;;7.03;3.15;;;17.60;99.90;;;;;;5010025;28;20033;-87
2021/09/11 05:23:34;;;;;;;4.68;3.08;;;17.50;99.90;;;;;;5007010;28;20053;-86
2021/09/11 05:26:01;;;;;;;5.80;3.22;;;17.50;99.90;;;;;;5032267;28;20030;-87
2021/09/11 05:28:26;;;;;;;4.90;3.25;;;17.60;99.90;;;;;;5009008;28;20109;-87
2021/09/11 05:30:52;;;;;;;5.65;3.42;;;17.50;99.90;;;;;;5008793;28;20129;-87
2021/09/11 05:33:18;;;;;;;5.72;3.40;;;17.50;99.90;;;;;;5009509;28;20044;-87
2021/09/11 05:35:43;;;;;;;6.32;3.63;;;17.40;99.90;;;;;;5000599;28;20446;-87
2021/09/11 05:38:09;;;;;;;5.85;3.92;;;17.40;99.90;;;;;;4988749;28;20022;-87
2021/09/11 05:40:35;;;;;;;5.70;3.88;;;17.40;99.90;;;;;;4989231;28;20031;-87
2021/09/11 05:43:00;;;;;;;7.60;3.97;;;17.40;99.90;;;;;;4993948;28;20168;-86
2021/09/11 05:45:26;;;;;;;5.72;3.67;;;17.50;99.90;;;;;;5009938;28;20474;-85
2021/09/11 05:47:51;;;;;;;5.75;3.58;;;17.50;99.90;;;;;;5008122;28;20116;-86
2021/09/11 05:50:17;;;;;;;6.45;3.83;;;17.60;99.90;;;;;;5008629;28;20025;-86
2021/09/11 05:52:43;;;;;;;4.65;3.15;;;17.70;99.90;;;;;;5003545;28;20060;-86
2021/09/11 05:55:09;;;;;;;6.05;3.97;;;17.80;99.90;;;;;;4989076;28;20515;-86
2021/09/11 05:57:34;;;;;;;5.88;3.45;;;17.80;99.90;;;;;;4990305;28;20033;-87
2021/09/11 06:00:00;;;;;;;5.50;3.70;;;17.90;99.90;;;;;;4990678;28;20402;-86
2021/09/11 06:02:26;;;;;;;5.60;4.10;;;17.90;99.90;;;;;;4993672;28;20197;-87
2021/09/11 06:04:52;;;;;;;5.35;3.25;;;17.90;99.90;;;;;;4989576;28;20056;-86
2021/09/11 06:07:18;;;;;;;6.03;3.80;;;17.90;99.90;;;;;;4991236;28;20084;-87
2021/09/11 06:09:43;;;;;;;6.68;3.80;;;17.90;99.90;;;;;;4997358;28;20560;-86
2021/09/11 06:12:12;;;;;;;10.05;3.85;;;17.80;99.90;;;;;;4991225;28;20014;-86
2021/09/11 06:14:39;;;;;;;5.78;3.72;;;17.70;99.90;;;;;;4989652;28;20042;-86
2021/09/11 06:17:06;;;;;;;8.32;4.55;;;17.80;99.90;;;;;;4994667;28;20032;-86
2021/09/11 06:19:32;;;;;;;6.90;4.03;;;17.80;99.90;;;;;;5003451;28;20029;-86
2021/09/11 06:21:58;;;;;;;6.25;3.83;;;17.80;99.90;;;;;;4990567;28;20101;-86
2021/09/11 06:24:24;;;;;;;8.13;4.15;;;17.80;99.90;;;;;;4994650;28;20058;-86
2021/09/11 06:26:50;;;;;;;5.32;3.85;;;17.90;99.90;;;;;;5002118;28;20056;-86
2021/09/11 06:29:15;;;;;;;7.53;4.10;;;17.90;99.90;;;;;;4986193;28;20023;-86
2021/09/11 06:31:41;;;;;;;7.15;4.15;;;17.90;99.90;;;;;;4995386;28;20018;-86
2021/09/11 06:34:07;;;;;;;6.65;4.18;;;17.90;99.90;;;;;;5002643;28;20105;-86
2021/09/11 06:36:33;;;;;;;5.50;3.97;;;17.90;99.90;;;;;;4994991;28;20037;-86
2021/09/11 06:38:58;;;;;;;5.57;3.80;;;18.00;99.90;;;;;;4989860;28;20030;-87
2021/09/11 06:41:24;;;;;;;5.60;3.88;;;18.00;99.90;;;;;;4991977;28;20069;-86
2021/09/11 06:43:49;;;;;;;6.63;3.50;;;18.00;99.90;;;;;;4990806;28;20071;-87
2021/09/11 06:46:15;;;;;;;6.47;4.18;;;18.00;99.90;;;;;;4996927;28;20030;-86
2021/09/11 06:48:40;;;;;;;4.85;3.55;;;18.10;99.90;;;;;;4994116;28;20367;-86
2021/09/11 06:51:06;;;;;;;6.13;3.95;;;18.00;99.90;;;;;;5006285;28;20505;-86
2021/09/11 06:53:32;;;;;;;5.32;3.78;;;18.00;99.90;;;;;;5007381;28;20069;-86
2021/09/11 06:55:57;;;;;;;5.70;3.60;;;18.00;99.90;;;;;;5007596;28;20105;-87
2021/09/11 06:58:23;;;;;;;7.07;3.20;;;18.20;99.90;;;;;;5006931;28;20030;-86
2021/09/11 07:00:48;;;;;;;5.97;3.72;;;18.40;99.90;;;;;;4996348;28;20034;-86
2021/09/11 07:03:15;;;;;;;5.93;3.55;;;18.40;99.90;;;;;;4989937;28;20045;-87
2021/09/11 07:05:42;;;;;;;5.47;3.40;;;18.60;99.90;;;;;;4997245;28;20134;-87
2021/09/11 07:08:07;;;;;;;7.63;3.08;;;18.70;99.90;;;;;;4990879;28;20129;-86
2021/09/11 07:10:33;;;;;;;5.97;3.00;;;18.70;99.90;;;;;;4992638;28;20585;-86
2021/09/11 07:12:59;;;;;;;5.15;2.80;;;18.70;99.90;;;;;;5004222;28;20059;-87
2021/09/11 07:15:24;;;;;;;4.85;3.00;;;18.70;99.90;;;;;;4995156;28;20030;-86
2021/09/11 07:17:51;;;;;;;4.55;2.47;;;18.70;99.90;;;;;;5006170;28;20190;-86
2021/09/11 07:20:17;;;;;;;7.00;2.55;;;18.60;99.90;;;;;;4990407;28;20026;-86
2021/09/11 07:22:42;;;;;;;6.03;2.70;;;18.60;99.90;;;;;;4993527;28;20033;-86
2021/09/11 07:25:08;;;;;;;3.75;2.60;;;18.60;99.90;;;;;;4990706;28;20063;-86
2021/09/11 07:27:34;;;;;;;7.50;2.92;;;18.60;99.90;;;;;;4993137;28;20486;-87
2021/09/11 07:30:00;;;;;;;4.75;2.30;;;18.70;99.90;;;;;;4992544;28;20026;-86
2021/09/11 07:32:26;;;;;;;4.57;2.72;;;18.90;99.90;;;;;;4995050;28;20027;-87
2021/09/11 07:34:52;;;;;;;4.38;2.55;;;18.80;99.90;;;;;;4989533;28;20030;-87
2021/09/11 07:37:18;;;;;;;3.78;2.28;;;19.00;99.90;;;;;;4989822;28;20026;-89
2021/09/11 07:39:44;;;;;;;4.03;2.83;;;19.20;99.90;;;;;;4991427;28;20032;-87
2021/09/11 07:42:09;;;;;;;5.10;2.70;;;19.30;99.90;;;;;;4985000;28;20041;-87
2021/09/11 07:44:35;;;;;;;6.05;2.72;;;19.50;99.90;;;;;;4990158;28;20479;-87
2021/09/11 07:47:00;;;;;;;5.15;2.90;;;19.60;99.90;;;;;;4988922;28;20101;-86
2021/09/11 07:49:26;;;;;;;4.72;2.50;;;19.80;99.90;;;;;;4988801;28;20026;-86
2021/09/11 07:51:56;;;;;;;4.50;2.50;;;20.00;99.90;;;;;;4988127;28;20027;-87
2021/09/11 07:54:22;;;;;;;4.43;2.58;;;19.80;99.90;;;;;;4994196;28;20117;-87
2021/09/11 07:56:47;;;;;;;6.05;2.50;;;19.80;99.90;;;;;;4994529;28;20101;-86
2021/09/11 07:59:13;;;;;;;4.93;2.67;;;19.70;99.90;;;;;;4990879;28;20066;-86
2021/09/11 08:01:39;;;;;;;5.72;2.88;;;19.90;99.90;;;;;;4992490;28;20026;-86
2021/09/11 08:04:04;;;;;;;5.38;2.80;;;20.00;99.90;;;;;;5006157;28;20038;-85
2021/09/11 08:06:30;;;;;;;4.80;2.72;;;20.10;99.90;;;;;;4994270;28;20096;-86
2021/09/11 08:08:56;;;;;;;4.50;2.53;;;20.20;99.90;;;;;;4991020;28;20053;-86
2021/09/11 08:11:21;;;;;;;5.07;2.42;;;20.30;99.90;;;;;;4989576;28;20034;-86
2021/09/11 08:13:47;;;;;;;5.53;2.72;;;20.30;99.90;;;;;;4988258;28;20026;-86
2021/09/11 08:16:13;;;;;;;4.10;2.17;;;20.20;99.90;;;;;;4994606;28;20026;-87
2021/09/11 08:18:38;;;;;;;5.35;2.60;;;20.10;99.90;;;;;;5003173;28;20129;-87
2021/09/11 08:21:04;;;;;;;4.30;2.40;;;20.20;99.90;;;;;;4998675;28;20381;-86
2021/09/11 08:23:31;;;;;;;5.78;2.58;;;20.20;99.90;;;;;;4992120;28;20042;-86
2021/09/11 08:25:56;;;;;;;4.68;2.58;;;20.20;99.90;;;;;;5001371;28;20105;-85
2021/09/11 08:28:22;;;;;;;4.60;2.55;;;20.20;99.90;;;;;;5004465;28;20445;-85
2021/09/11 08:30:48;;;;;;;4.18;2.60;;;20.40;99.90;;;;;;4994327;28;20659;-85
2021/09/11 08:33:15;;;;;;;5.25;2.30;;;20.50;99.90;;;;;;4999665;28;20030;-85
2021/09/11 08:35:42;;;;;;;4.28;2.72;;;20.40;99.90;;;;;;5000176;28;20026;-85
2021/09/11 08:38:08;;;;;;;5.18;2.30;;;20.50;99.90;;;;;;5006093;28;20496;-86
2021/09/11 08:40:34;;;;;;;4.32;2.60;;;20.60;99.90;;;;;;5004414;28;20398;-85
2021/09/11 08:43:01;;;;;;;4.07;2.15;;;20.60;99.90;;;;;;5005337;28;20026;-86
2021/09/11 08:45:27;;;;;;;5.00;2.58;;;20.70;99.90;;;;;;5002393;28;20034;-86
2021/09/11 08:47:53;;;;;;;6.40;2.70;;;20.70;99.90;;;;;;5005740;28;20394;-85
2021/09/11 08:50:19;;;;;;;4.20;2.50;;;20.70;99.90;;;;;;4995084;28;20039;-85
2021/09/11 08:52:50;;;;;;;5.68;3.10;;;20.80;99.90;;;;;;4987175;28;20023;-85
2021/09/11 08:55:17;;;;;;;4.77;2.57;;;20.70;99.90;;;;;;4998927;28;20022;-85
2021/09/11 08:58:06;;;;;;;3.83;2.38;;;20.70;99.90;;;;;;5000104;28;20030;-85
2021/09/11 09:00:42;;;;;;;4.20;2.30;;;21.00;99.90;;;;;;4997200;28;20027;-85
2021/09/11 09:03:30;;;;;;;3.95;2.65;;;21.00;99.90;;;;;;5007735;28;20017;-85
2021/09/11 09:06:09;;;;;;;7.80;2.70;;;21.20;99.90;;;;;;5007665;28;20423;-85
2021/09/11 09:08:35;;;;;;;4.30;2.53;;;21.30;99.90;;;;;;5006781;28;20018;-85
2021/09/11 09:11:23;;;;;;;6.30;2.78;;;21.50;99.90;;;;;;5008600;28;20604;-85
2021/09/11 09:13:57;;;;;;;3.92;2.17;;;21.90;99.90;;;;;;5008247;28;20022;-85
2021/09/11 09:16:24;;;;;;;5.05;2.50;;;22.00;99.90;;;;;;5004393;28;20030;-86
2021/09/11 09:18:50;;;;;;;4.20;2.33;;;22.00;99.90;;;;;;4988243;28;20113;-85
2021/09/11 09:21:37;;;;;;;4.10;2.35;;;22.00;99.90;;;;;;4990823;28;20087;-85
2021/09/11 09:24:06;;;;;;;4.72;2.60;;;21.80;99.90;;;;;;5011154;28;20242;-85
2021/09/11 09:26:51;;;;;;;5.15;3.00;;;22.00;99.90;;;;;;4995542;28;20487;-86
2021/09/11 09:29:18;;;;;;;5.32;2.70;;;22.10;99.90;;;;;;5003305;28;20037;-85
2021/09/11 09:31:45;;;;;;;3.53;2.05;;;22.10;99.90;;;;;;5003925;28;20397;-86
2021/09/11 09:34:36;;;;;;;5.43;2.58;;;22.30;99.90;;;;;;4989116;28;20019;-86
2021/09/11 09:37:04;;;;;;;5.40;2.17;;;22.40;99.90;;;;;;4989128;28;20037;-84
2021/09/11 09:39:37;;;;;;;5.13;2.53;;;22.40;99.90;;;;;;4988293;28;20026;-87
2021/09/11 09:42:04;;;;;;;5.22;2.10;;;22.40;99.90;;;;;;5004382;28;20045;-86
2021/09/11 09:44:41;;;;;;;6.35;2.38;;;22.50;99.90;;;;;;5004619;28;20030;-86
2021/09/11 09:47:11;;;;;;;5.32;2.15;;;22.60;99.90;;;;;;4988984;28;20113;-87
2021/09/11 09:49:37;;;;;;;3.67;2.03;;;22.60;99.90;;;;;;4989944;28;20479;-86
2021/09/11 09:52:02;;;;;;;4.43;2.25;;;22.50;99.90;;;;;;4995742;28;20029;-85
2021/09/11 09:54:28;;;;;;;3.58;2.15;;;22.30;99.90;;;;;;5008204;28;20040;-85
2021/09/11 09:56:56;;;;;;;5.55;2.20;;;22.20;99.90;;;;;;5006824;28;20118;-85
2021/09/11 09:59:22;;;;;;;4.03;2.17;;;22.00;99.90;;;;;;5003069;28;20477;-85
2021/09/11 10:01:50;;;;;;;5.32;2.28;;;21.90;99.90;;;;;;5009213;28;20033;-85
2021/09/11 10:06:50;;;;;;;4.03;2.22;;;21.70;99.90;;;;;;5108248;23;20478;-85
2021/09/11 10:09:26;;;;;;;5.93;2.25;;;21.70;99.90;;;;;;5097373;27;20067;-85
2021/09/11 10:11:52;;;;;;;4.93;2.05;;;21.90;99.90;;;;;;5102990;28;20027;-85
2021/09/11 10:14:20;;;;;;;5.93;2.50;;;22.40;99.90;;;;;;5099174;28;20383;-80
2021/09/11 10:16:58;;;;;;;3.50;2.00;;;23.00;99.90;;;;;;5062287;28;20654;-80
2021/09/11 10:19:26;;;;;;;4.53;2.33;;;23.60;99.90;;;;;;5076339;28;20035;-78
2021/09/11 10:22:21;;;;;;;3.47;2.03;;;24.00;99.90;;;;;;5083800;28;20024;-80
2021/09/11 10:24:49;;;;;;;4.38;2.05;;;24.10;99.90;;;;;;5071239;28;20400;-85
2021/09/11 10:27:25;;;;;;;5.03;2.30;;;24.80;99.90;;;;;;5087151;28;20418;-85
2021/09/11 10:29:55;;;;;;;4.78;2.10;;;24.90;99.90;;;;;;5080102;28;20055;-85
2021/09/11 10:32:37;;;;;;;4.10;2.08;;;25.10;99.90;;;;;;5087673;28;20729;-85
2021/09/11 10:35:02;;;;;;;3.30;2.00;;;25.40;99.90;;;;;;5088833;28;20024;-84
2021/09/11 10:37:33;;;;;;;4.18;2.47;;;25.10;99.90;;;;;;5088832;28;20115;-84
2021/09/11 10:40:21;;;;;;;3.65;2.10;;;24.70;99.90;;;;;;5081028;28;20024;-85
2021/09/11 10:43:03;;;;;;;5.20;2.40;;;24.50;99.90;;;;;;5066223;28;20031;-85
2021/09/11 10:45:43;;;;;;;3.88;2.50;;;24.10;99.90;;;;;;5084376;28;20031;-85
2021/09/11 10:48:32;;;;;;;5.68;2.20;;;23.80;99.90;;;;;;5074933;28;20484;-85
2021/09/11 10:51:10;;;;;;;3.67;2.33;;;23.30;99.90;;;;;;5076227;28;20110;-85
2021/09/11 10:53:36;;;;;;;5.40;2.25;;;22.90;99.90;;;;;;5056256;28;20174;-85
2021/09/11 10:56:21;;;;;;;4.57;2.35;;;22.60;99.90;;;;;;5057680;28;20029;-85
2021/09/11 10:59:18;;;;;;;4.65;2.50;;;22.40;99.90;;;;;;5064440;28;20044;-84
2021/09/11 11:01:54;;;;;;;5.22;2.53;;;22.20;99.90;;;;;;5086682;28;20032;-84
2021/09/11 11:04:37;;;;;;;5.13;1.95;;;22.20;99.90;;;;;;5089716;28;20107;-84
2021/09/11 11:07:11;;;;;;;6.65;2.45;;;22.10;99.90;;;;;;5080230;28;20051;-84
2021/09/11 11:09:40;;;;;;;4.00;2.38;;;22.00;99.90;;;;;;5076661;28;20480;-85
2021/09/11 11:12:08;;;;;;;4.82;2.58;;;21.90;99.90;;;;;;5077741;28;20051;-85
2021/09/11 11:14:37;;;;;;;22.42;5.65;;;21.80;99.90;;;;;;5075621;28;20676;-82
2021/09/11 11:17:04;;;;;;;21.83;5.60;;;21.70;99.90;;;;;;5055710;28;20063;-82
2021/09/11 11:19:33;;;;;;;10.90;4.30;;;21.40;99.90;;;;;;5091962;28;20041;-82
2021/09/11 11:22:06;;;;;;;12.30;4.53;;;21.10;99.90;;;;;;5083023;28;20051;-84
2021/09/11 11:24:37;;;;;;;9.60;4.00;;;20.70;99.90;;;;;;5071307;28;20106;-85
2021/09/11 11:27:05;;;;;;;5.00;2.28;;;20.30;99.90;;;;;;5069865;28;20086;-84
2021/09/11 11:29:33;;;;;;;7.43;3.80;;;20.00;99.90;;;;;;5085748;28;20019;-83
2021/09/11 11:32:01;;;;;;;10.32;4.00;;;19.70;99.90;;;;;;5080381;28;20491;-84
2021/09/11 11:34:27;;;;;;;8.05;4.03;;;19.50;99.90;;;;;;5092043;28;20028;-83
2021/09/11 11:36:56;;;;;;;6.72;3.55;;;19.40;99.90;;;;;;5074642;28;20028;-83
2021/09/11 11:39:26;;;;;;;6.80;3.92;;;19.30;99.90;;;;;;5065048;28;20083;-83
2021/09/11 11:42:00;;;;;;;8.30;4.03;;;19.30;99.90;;;;;;5072291;28;20028;-84
2021/09/11 11:44:27;;;;;;;7.82;3.30;;;19.30;99.90;;;;;;5072578;28;20475;-83
2021/09/11 11:47:25;;;;;;;7.50;3.15;;;19.30;99.90;;;;;;5072487;28;20111;-84
2021/09/11 11:49:52;;;;;;;5.93;2.42;;;19.40;99.90;;;;;;5074155;28;20384;-84
2021/09/11 11:52:19;;;;;;;6.00;2.17;;;19.40;99.90;;;;;;5086928;28;20542;-83
2021/09/11 11:54:49;;;;;;;5.70;2.15;;;19.40;99.90;;;;;;5072427;28;20032;-84
2021/09/11 11:57:21;;;;;;;3.53;2.10;;;19.40;99.90;;;;;;5063946;28;20445;-83
2021/09/11 11:59:56;;;;;;;;;;;19.40;99.90;;;;;;5071132;28;20114;-83
2021/09/11 12:02:31;;;;;;;4.00;2.05;;;19.50;99.90;;;;;;5072613;28;19972;-83
2021/09/11 12:05:16;;;;;;;4.57;1.70;;;19.60;99.90;;;;;;5086729;28;20124;-83
2021/09/11 12:07:55;;;;;;;3.40;1.77;;;19.70;99.90;;;;;;5075168;28;20032;-83
2021/09/11 12:10:23;;;;;;;3.20;1.60;;;19.80;99.90;;;;;;5093033;28;20030;-82
2021/09/11 12:12:53;;;;;;;3.70;1.60;;;19.80;99.90;;;;;;5070018;28;20059;-82
2021/09/11 12:15:21;;;;;;;3.85;1.90;;;20.00;99.90;;;;;;5088840;28;20015;-83
2021/09/11 12:18:11;;;;;;;4.07;1.65;;;20.10;99.90;;;;;;5064491;28;20407;-82
2021/09/11 12:20:44;;;;;;;4.13;1.63;;;20.30;99.90;;;;;;5074106;28;20036;-83
2021/09/11 12:23:20;;;;;;;3.15;1.85;;;20.30;99.90;;;;;;5064474;28;20048;-82
2021/09/11 12:26:06;;;;;;;3.38;1.50;;;20.50;99.90;;;;;;5068705;28;20025;-82
2021/09/11 12:28:51;;;;;;;3.83;1.70;;;20.50;99.90;;;;;;5072493;28;20016;-82
2021/09/11 12:31:20;;;;;;;2.92;1.52;;;20.60;99.90;;;;;;5087702;28;20020;-82
2021/09/11 12:34:15;;;;;;;4.07;1.20;;;20.90;99.90;;;;;;5085976;28;20036;-83
2021/09/11 12:36:42;;;;;;;1.83;1.02;;;21.10;99.90;;;;;;5096208;28;20051;-82
2021/09/11 12:39:25;;;;;;;2.47;1.27;;;21.30;99.90;;;;;;5079772;28;20107;-84
2021/09/11 12:41:52;;;;;;;4.72;1.42;;;21.50;99.90;;;;;;5095190;28;20620;-83
2021/09/11 12:44:19;;;;;;;3.50;1.20;;;21.90;99.90;;;;;;5092458;28;20028;-82
2021/09/11 12:46:48;;;;;;;3.15;1.00;;;22.30;99.90;;;;;;5074089;28;20036;-83
2021/09/11 12:49:15;;;;;;;3.92;1.08;;;22.70;99.90;;;;;;5065507;28;20069;-83
2021/09/11 12:51:43;;;;;;;2.08;1.00;;;22.90;99.90;;;;;;5094022;28;20055;-84
2021/09/11 12:54:09;;;;;;;2.22;0.90;;;23.20;99.90;;;;;;5086065;28;20040;-83
2021/09/11 12:56:35;;;;;;;4.60;1.20;;;23.40;99.90;;;;;;5065629;28;20559;-84